createdAt,value
2023-02-06T00:00:54.312Z,22.18
2023-02-06T00:03:20.827Z,22.18
2023-02-06T00:05:58.256Z,22.17
2023-02-06T00:08:26.090Z,22.15
2023-02-06T00:10:52.998Z,22.16
2023-02-06T00:13:20.156Z,22.15
2023-02-06T00:15:46.978Z,22.13
2023-02-06T00:18:13.571Z,22.12
2023-02-06T00:20:40.037Z,22.11
2023-02-06T00:23:06.556Z,22.11
2023-02-06T00:25:33.201Z,22.11
2023-02-06T00:27:59.803Z,22.09
2023-02-06T00:30:26.396Z,22.10
2023-02-06T00:32:52.926Z,22.07
2023-02-06T00:35:19.580Z,22.06
2023-02-06T00:37:46.199Z,22.05
2023-02-06T00:40:12.695Z,22.04
2023-02-06T00:42:39.172Z,22.05
2023-02-06T00:45:06.340Z,22.04
2023-02-06T00:47:33.020Z,22.02
2023-02-06T00:49:59.465Z,22.00
2023-02-06T00:52:25.960Z,22.02
2023-02-06T00:54:52.679Z,22.01
2023-02-06T00:57:19.204Z,22.00
2023-02-06T00:59:45.676Z,21.99
2023-02-06T01:02:12.166Z,21.97
2023-02-06T01:04:38.770Z,21.95
2023-02-06T01:07:05.250Z,21.96
2023-02-06T01:09:31.809Z,21.96
2023-02-06T01:11:58.312Z,21.95
2023-02-06T01:14:24.761Z,21.93
2023-02-06T01:16:51.227Z,21.90
2023-02-06T01:19:17.710Z,21.91
2023-02-06T01:21:44.249Z,21.90
2023-02-06T01:24:10.743Z,21.89
2023-02-06T01:26:37.289Z,21.89
2023-02-06T01:29:04.110Z,21.87
2023-02-06T01:31:31.667Z,21.88
2023-02-06T01:34:00.655Z,21.86
2023-02-06T01:36:27.541Z,21.86
2023-02-06T01:38:54.202Z,21.86
2023-02-06T01:41:22.769Z,21.86
2023-02-06T01:44:16.338Z,21.82
2023-02-06T01:46:45.969Z,21.83
2023-02-06T01:49:36.363Z,21.81
2023-02-06T01:52:23.731Z,21.80
2023-02-06T01:54:56.892Z,21.79
2023-02-06T01:57:25.647Z,21.79
2023-02-06T01:59:57.336Z,21.79
2023-02-06T02:02:26.501Z,21.78
2023-02-06T02:04:53.582Z,21.77
2023-02-06T02:07:24.193Z,21.77
2023-02-06T02:09:50.565Z,21.76
2023-02-06T02:12:17.128Z,21.76
2023-02-06T02:14:46.772Z,21.74
2023-02-06T02:17:31.360Z,21.75
2023-02-06T02:20:39.316Z,21.74
2023-02-06T02:23:11.905Z,21.73
2023-02-06T02:25:44.517Z,21.71
2023-02-06T02:28:20.050Z,21.71
2023-02-06T02:31:11.494Z,21.70
2023-02-06T02:33:56.051Z,21.69
2023-02-06T02:36:37.271Z,21.68
2023-02-06T02:39:06.541Z,21.67
2023-02-06T02:41:48.994Z,21.67
2023-02-06T02:44:31.194Z,21.66
2023-02-06T02:47:02.700Z,21.65
2023-02-06T02:49:33.010Z,21.65
2023-02-06T02:52:00.568Z,21.64
2023-02-06T02:54:27.519Z,21.64
2023-02-06T02:57:00.558Z,21.63
2023-02-06T02:59:32.097Z,21.62
2023-02-06T03:02:25.086Z,21.61
2023-02-06T03:05:02.343Z,21.60
2023-02-06T03:07:47.527Z,21.61
2023-02-06T03:10:33.497Z,21.60
2023-02-06T03:13:03.221Z,21.58
2023-02-06T03:16:05.784Z,21.56
2023-02-06T03:18:40.232Z,21.56
2023-02-06T03:21:10.868Z,21.56
2023-02-06T03:23:38.779Z,21.54
2023-02-06T03:26:09.940Z,21.54
2023-02-06T03:28:43.009Z,21.52
2023-02-06T03:31:13.775Z,21.54
2023-02-06T03:33:47.822Z,21.53
2023-02-06T03:36:17.218Z,21.50
2023-02-06T03:38:49.422Z,21.51
2023-02-06T03:41:21.074Z,21.51
2023-02-06T03:43:49.689Z,21.50
2023-02-06T03:46:18.427Z,21.48
2023-02-06T03:48:52.060Z,21.48
2023-02-06T03:51:24.546Z,21.47
2023-02-06T03:53:54.410Z,21.47
2023-02-06T03:56:30.731Z,21.46
2023-02-06T03:58:57.237Z,21.45
2023-02-06T04:01:24.836Z,21.45
2023-02-06T04:03:51.563Z,21.43
2023-02-06T04:06:18.293Z,21.44
2023-02-06T04:08:44.776Z,21.43
2023-02-06T04:11:11.238Z,21.42
2023-02-06T04:13:37.784Z,21.42
2023-02-06T04:16:04.588Z,21.40
2023-02-06T04:18:31.110Z,21.40
2023-02-06T04:21:03.786Z,21.39
2023-02-06T04:23:30.319Z,21.38
2023-02-06T04:25:56.849Z,21.37
2023-02-06T04:28:23.500Z,21.37
2023-02-06T04:30:50.170Z,21.37
2023-02-06T04:33:16.710Z,21.36
2023-02-06T04:35:43.165Z,21.36
2023-02-06T04:38:09.795Z,21.34
2023-02-06T04:40:36.401Z,21.34
2023-02-06T04:43:02.959Z,21.34
2023-02-06T04:45:29.581Z,21.31
2023-02-06T04:47:57.508Z,21.32
2023-02-06T04:50:26.330Z,21.31
2023-02-06T04:52:52.926Z,21.30
2023-02-06T04:55:19.383Z,21.29
2023-02-06T04:57:45.860Z,21.29
2023-02-06T05:00:13.478Z,21.29
2023-02-06T05:02:40.118Z,21.29
2023-02-06T05:05:08.634Z,21.30
2023-02-06T05:07:35.814Z,21.32
2023-02-06T05:10:02.967Z,21.34
2023-02-06T05:12:29.489Z,21.38
2023-02-06T05:14:56.337Z,21.39
2023-02-06T05:17:22.862Z,21.42
2023-02-06T05:19:49.329Z,21.46
2023-02-06T05:22:16.135Z,21.48
2023-02-06T05:24:42.604Z,21.50
2023-02-06T05:27:09.072Z,21.52
2023-02-06T05:29:35.564Z,21.54
2023-02-06T05:32:02.075Z,21.54
2023-02-06T05:34:28.599Z,21.55
2023-02-06T05:36:55.080Z,21.56
2023-02-06T05:39:21.892Z,21.56
2023-02-06T05:41:48.402Z,21.58
2023-02-06T05:44:14.880Z,21.60
2023-02-06T05:46:41.430Z,21.58
2023-02-06T05:49:08.062Z,21.58
2023-02-06T05:51:34.576Z,21.58
2023-02-06T05:54:01.211Z,21.57
2023-02-06T05:56:27.760Z,21.60
2023-02-06T05:58:54.242Z,21.58
2023-02-06T06:01:20.813Z,21.58
2023-02-06T06:03:47.348Z,21.59
2023-02-06T06:06:13.945Z,21.61
2023-02-06T06:08:40.430Z,21.65
2023-02-06T06:11:07.558Z,21.66
2023-02-06T06:13:34.265Z,21.68
2023-02-06T06:16:00.807Z,21.69
2023-02-06T06:18:27.405Z,21.70
2023-02-06T06:20:53.889Z,21.72
2023-02-06T06:23:20.505Z,21.72
2023-02-06T06:25:48.533Z,21.73
2023-02-06T06:28:15.310Z,21.73
2023-02-06T06:30:42.023Z,21.73
2023-02-06T06:33:08.566Z,21.73
2023-02-06T06:35:35.410Z,21.72
2023-02-06T06:38:02.031Z,21.72
2023-02-06T06:40:28.825Z,21.71
2023-02-06T06:42:55.301Z,21.72
2023-02-06T06:45:21.916Z,21.72
2023-02-06T06:47:48.449Z,21.76
2023-02-06T06:50:15.156Z,21.79
2023-02-06T06:52:41.658Z,21.79
2023-02-06T06:55:08.366Z,21.82
2023-02-06T06:57:35.042Z,21.82
2023-02-06T07:00:01.660Z,21.82
2023-02-06T07:02:28.589Z,21.83
2023-02-06T07:04:55.781Z,21.83
2023-02-06T07:07:22.485Z,21.83
2023-02-06T07:09:49.130Z,21.85
2023-02-06T07:12:15.830Z,21.83
2023-02-06T07:14:42.407Z,21.83
2023-02-06T07:17:08.943Z,21.83
2023-02-06T07:19:35.423Z,21.82
2023-02-06T07:22:01.949Z,21.81
2023-02-06T07:24:28.491Z,21.82
2023-02-06T07:26:55.086Z,21.86
2023-02-06T07:29:21.576Z,21.88
2023-02-06T07:31:48.160Z,21.91
2023-02-06T07:34:14.780Z,21.93
2023-02-06T07:36:41.236Z,21.94
2023-02-06T07:39:07.713Z,21.96
2023-02-06T07:41:34.564Z,21.97
2023-02-06T07:44:01.042Z,21.97
2023-02-06T07:46:28.302Z,21.97
2023-02-06T07:48:54.851Z,21.97
2023-02-06T07:51:21.345Z,21.97
2023-02-06T07:53:48.598Z,21.97
2023-02-06T07:56:17.624Z,21.96
2023-02-06T07:58:45.137Z,21.95
2023-02-06T08:01:11.726Z,21.95
2023-02-06T08:03:38.424Z,21.96
2023-02-06T08:06:13.267Z,21.98
2023-02-06T08:08:39.884Z,22.01
2023-02-06T08:11:15.126Z,22.01
2023-02-06T08:13:43.173Z,22.03
2023-02-06T08:16:15.557Z,22.05
2023-02-06T08:18:42.992Z,22.04
2023-02-06T08:21:18.404Z,22.05
2023-02-06T08:23:45.512Z,22.05
2023-02-06T08:26:16.075Z,22.06
2023-02-06T08:28:43.005Z,22.06
2023-02-06T08:31:37.420Z,22.04
2023-02-06T08:34:05.475Z,22.04
2023-02-06T08:36:32.913Z,22.04
2023-02-06T08:39:01.116Z,22.04
2023-02-06T08:41:30.630Z,22.03
2023-02-06T08:43:59.555Z,22.04
2023-02-06T08:46:29.168Z,22.06
2023-02-06T08:49:01.243Z,22.09
2023-02-06T08:51:28.640Z,22.10
2023-02-06T08:54:00.048Z,22.11
2023-02-06T08:56:28.100Z,22.11
2023-02-06T08:58:56.315Z,22.12
2023-02-06T09:01:22.892Z,22.12
2023-02-06T09:03:49.516Z,22.13
2023-02-06T09:06:16.610Z,22.13
2023-02-06T09:08:44.618Z,22.12
2023-02-06T09:11:15.607Z,22.14
2023-02-06T09:13:43.545Z,22.15
2023-02-06T09:16:11.277Z,22.16
2023-02-06T09:18:38.018Z,22.16
2023-02-06T09:21:05.600Z,22.16
2023-02-06T09:23:32.146Z,22.16
2023-02-06T09:25:58.868Z,22.17
2023-02-06T09:28:25.671Z,22.20
2023-02-06T09:30:52.737Z,22.21
2023-02-06T09:33:19.422Z,22.23
2023-02-06T09:35:45.885Z,22.22
2023-02-06T09:38:12.750Z,22.22
2023-02-06T09:40:39.264Z,22.22
2023-02-06T09:43:06.021Z,22.23
2023-02-06T09:45:33.840Z,22.24
2023-02-06T09:48:14.505Z,22.22
2023-02-06T09:50:40.934Z,22.24
2023-02-06T09:53:10.511Z,22.23
2023-02-06T09:55:42.744Z,22.25
2023-02-06T09:58:16.861Z,22.25
2023-02-06T10:00:55.675Z,22.25
2023-02-06T10:03:44.207Z,22.25
2023-02-06T10:06:19.347Z,22.28
2023-02-06T10:09:19.934Z,22.28
2023-02-06T10:11:55.352Z,22.27
2023-02-06T10:14:33.288Z,22.25
2023-02-06T10:17:06.033Z,22.25
2023-02-06T10:19:58.352Z,22.25
2023-02-06T10:22:33.896Z,22.27
2023-02-06T10:25:35.492Z,22.31
2023-02-06T10:28:17.451Z,22.33
2023-02-06T10:30:56.634Z,22.37
2023-02-06T10:33:27.644Z,22.36
2023-02-06T10:36:07.855Z,22.37
2023-02-06T10:39:00.576Z,22.40
2023-02-06T10:41:39.060Z,22.42
2023-02-06T10:44:19.281Z,22.41
2023-02-06T10:46:48.627Z,22.41
2023-02-06T10:49:40.723Z,22.44
2023-02-06T10:52:27.633Z,22.44
2023-02-06T10:55:15.757Z,22.46
2023-02-06T10:57:44.969Z,22.48
2023-02-06T11:00:23.912Z,22.48
2023-02-06T11:03:07.069Z,22.48
2023-02-06T11:05:34.300Z,22.50
2023-02-06T11:08:24.761Z,22.49
2023-02-06T11:10:52.423Z,22.50
2023-02-06T11:13:28.680Z,22.51
2023-02-06T11:16:13.655Z,22.51
2023-02-06T11:18:43.520Z,22.53
2023-02-06T11:21:12.814Z,22.52
2023-02-06T11:23:40.851Z,22.56
2023-02-06T11:26:17.990Z,22.55
2023-02-06T11:28:56.442Z,22.57
2023-02-06T11:31:41.440Z,22.57
2023-02-06T11:34:23.799Z,22.57
2023-02-06T11:37:00.700Z,22.58
2023-02-06T11:39:31.817Z,22.59
2023-02-06T11:42:01.097Z,22.59
2023-02-06T11:44:34.981Z,22.60
2023-02-06T11:47:19.262Z,22.62
2023-02-06T11:49:45.926Z,22.64
2023-02-06T11:52:28.965Z,22.65
2023-02-06T11:54:56.986Z,22.67
2023-02-06T11:57:26.500Z,22.68
2023-02-06T11:59:55.857Z,22.69
2023-02-06T12:02:27.099Z,22.70
2023-02-06T12:05:01.605Z,22.70
2023-02-06T12:07:37.366Z,22.70
2023-02-06T12:10:13.642Z,22.70
2023-02-06T12:12:45.517Z,22.70
2023-02-06T12:15:46.886Z,22.71
2023-02-06T12:18:15.539Z,22.71
2023-02-06T12:20:52.014Z,22.71
2023-02-06T12:23:24.336Z,22.72
2023-02-06T12:25:56.525Z,22.73
2023-02-06T12:28:28.823Z,22.74
2023-02-06T12:30:59.083Z,22.75
2023-02-06T12:33:36.395Z,22.77
2023-02-06T12:36:17.426Z,22.78
2023-02-06T12:39:01.006Z,22.78
2023-02-06T12:42:01.238Z,22.81
2023-02-06T12:44:34.846Z,22.81
2023-02-06T12:47:16.328Z,22.81
2023-02-06T12:49:57.120Z,22.81
2023-02-06T12:52:31.564Z,22.82
2023-02-06T12:55:27.090Z,22.83
2023-02-06T12:57:54.561Z,22.82
2023-02-06T13:00:38.149Z,22.84
2023-02-06T13:03:16.943Z,22.85
2023-02-06T13:05:54.882Z,22.84
2023-02-06T13:08:39.249Z,22.86
2023-02-06T13:11:21.008Z,22.87
2023-02-06T13:13:49.611Z,22.87
2023-02-06T13:16:16.410Z,22.88
2023-02-06T13:18:44.651Z,22.89
2023-02-06T13:21:35.153Z,22.90
2023-02-06T13:24:01.605Z,22.90
2023-02-06T13:26:48.736Z,22.91
2023-02-06T13:29:27.200Z,22.92
2023-02-06T13:32:24.210Z,22.93
2023-02-06T13:34:57.231Z,22.93
2023-02-06T13:37:40.298Z,22.93
2023-02-06T13:40:25.730Z,22.93
2023-02-06T13:43:07.459Z,22.94
2023-02-06T13:45:59.771Z,22.95
2023-02-06T13:48:29.365Z,22.96
2023-02-06T13:51:39.590Z,22.98
2023-02-06T13:54:31.098Z,22.99
2023-02-06T13:57:13.542Z,22.98
2023-02-06T13:59:46.608Z,23.00
2023-02-06T14:02:36.728Z,23.00
2023-02-06T14:05:06.354Z,23.00
2023-02-06T14:08:00.859Z,23.01
2023-02-06T14:11:26.805Z,23.02
2023-02-06T14:14:14.597Z,23.03
2023-02-06T14:16:53.957Z,23.04
2023-02-06T14:19:29.669Z,23.06
2023-02-06T14:22:09.977Z,23.05
2023-02-06T14:24:42.327Z,23.06
2023-02-06T14:27:37.372Z,23.07
2023-02-06T14:30:09.946Z,23.07
2023-02-06T14:33:14.061Z,23.08
2023-02-06T14:36:17.341Z,23.08
2023-02-06T14:39:03.556Z,23.09
2023-02-06T14:41:32.255Z,23.10
2023-02-06T14:43:59.769Z,23.11
2023-02-06T14:46:27.430Z,23.10
2023-02-06T14:48:58.598Z,23.12
2023-02-06T14:51:35.251Z,23.12
2023-02-06T14:54:26.464Z,23.12
2023-02-06T14:57:01.995Z,23.14
2023-02-06T14:59:29.720Z,23.17
2023-02-06T15:01:58.290Z,23.16
2023-02-06T15:04:29.652Z,23.17
2023-02-06T15:07:00.781Z,23.17
2023-02-06T15:09:40.391Z,23.18
2023-02-06T15:12:22.600Z,23.18
2023-02-06T15:15:04.572Z,23.19
2023-02-06T15:17:31.976Z,23.20
2023-02-06T15:20:26.021Z,23.21
2023-02-06T15:23:02.148Z,23.22
2023-02-06T15:25:57.088Z,23.23
2023-02-06T15:28:28.890Z,23.23
2023-02-06T15:30:57.667Z,23.23
2023-02-06T15:33:27.817Z,23.24
2023-02-06T15:35:56.364Z,23.23
2023-02-06T15:38:25.368Z,23.23
2023-02-06T15:41:05.592Z,23.25
2023-02-06T15:43:33.721Z,23.24
2023-02-06T15:46:03.448Z,23.24
2023-02-06T15:48:49.197Z,23.25
2023-02-06T15:51:28.428Z,23.25
2023-02-06T15:54:18.002Z,23.23
2023-02-06T15:56:50.666Z,23.24
2023-02-06T15:59:20.957Z,23.23
2023-02-06T16:01:48.804Z,23.24
2023-02-06T16:04:18.570Z,23.24
2023-02-06T16:06:46.797Z,23.25
2023-02-06T16:09:21.588Z,23.24
2023-02-06T16:11:52.196Z,23.24
2023-02-06T16:14:40.797Z,23.25
2023-02-06T16:17:13.159Z,23.24
2023-02-06T16:19:54.437Z,23.24
2023-02-06T16:22:20.908Z,23.23
2023-02-06T16:24:48.516Z,23.23
2023-02-06T16:27:18.912Z,23.23
2023-02-06T16:29:49.095Z,23.25
2023-02-06T16:32:20.690Z,23.24
2023-02-06T16:34:48.123Z,23.24
2023-02-06T16:37:26.236Z,23.24
2023-02-06T16:39:54.083Z,23.22
2023-02-06T16:42:25.901Z,23.22
2023-02-06T16:44:58.229Z,23.23
2023-02-06T16:47:25.125Z,23.24
2023-02-06T16:49:52.248Z,23.24
2023-02-06T16:52:25.873Z,23.23
2023-02-06T16:54:55.917Z,23.26
2023-02-06T16:57:34.981Z,23.26
2023-02-06T17:00:03.918Z,23.25
2023-02-06T17:02:30.483Z,23.25
2023-02-06T17:04:57.095Z,23.25
2023-02-06T17:07:25.915Z,23.26
2023-02-06T17:09:55.792Z,23.26
2023-02-06T17:12:22.953Z,23.26
2023-02-06T17:14:49.709Z,23.29
2023-02-06T17:17:18.976Z,23.29
2023-02-06T17:19:46.445Z,23.28
2023-02-06T17:22:13.994Z,23.27
2023-02-06T17:24:41.165Z,23.29
2023-02-06T17:27:11.434Z,23.31
2023-02-06T17:29:37.996Z,23.32
2023-02-06T17:32:06.340Z,23.33
2023-02-06T17:34:33.348Z,23.34
2023-02-06T17:37:00.029Z,23.34
2023-02-06T17:39:27.057Z,23.33
2023-02-06T17:41:53.703Z,23.32
2023-02-06T17:44:20.496Z,23.34
2023-02-06T17:46:49.247Z,23.34
2023-02-06T17:49:17.285Z,23.35
2023-02-06T17:51:45.337Z,23.35
2023-02-06T17:54:12.449Z,23.34
2023-02-06T17:56:39.042Z,23.33
2023-02-06T17:59:05.668Z,23.33
2023-02-06T18:01:32.193Z,23.32
2023-02-06T18:04:00.924Z,23.33
2023-02-06T18:06:31.614Z,23.35
2023-02-06T18:08:58.134Z,23.36
2023-02-06T18:11:24.687Z,23.37
2023-02-06T18:13:51.376Z,23.37
2023-02-06T18:16:23.741Z,23.37
2023-02-06T18:18:50.965Z,23.36
2023-02-06T18:21:19.576Z,23.36
2023-02-06T18:23:47.265Z,23.37
2023-02-06T18:26:14.473Z,23.36
2023-02-06T18:28:41.283Z,23.35
2023-02-06T18:31:33.585Z,23.36
2023-02-06T18:34:02.013Z,23.35
2023-02-06T18:36:29.768Z,23.35
2023-02-06T18:38:57.561Z,23.32
2023-02-06T18:41:42.741Z,23.33
2023-02-06T18:44:10.498Z,23.32
2023-02-06T18:46:38.115Z,23.34
2023-02-06T18:49:05.620Z,23.34
2023-02-06T18:51:33.704Z,23.35
2023-02-06T18:54:00.772Z,23.35
2023-02-06T18:56:27.998Z,23.34
2023-02-06T18:58:54.766Z,23.33
2023-02-06T19:01:24.894Z,23.32
2023-02-06T19:03:52.706Z,23.32
2023-02-06T19:06:35.848Z,23.34
2023-02-06T19:09:07.023Z,23.36
2023-02-06T19:11:35.554Z,23.34
2023-02-06T19:14:03.472Z,23.35
2023-02-06T19:16:31.030Z,23.35
2023-02-06T19:18:57.572Z,23.33
2023-02-06T19:21:25.575Z,23.32
2023-02-06T19:23:57.419Z,23.30
2023-02-06T19:26:24.682Z,23.34
2023-02-06T19:28:52.034Z,23.34
2023-02-06T19:31:23.869Z,23.34
2023-02-06T19:33:52.623Z,23.34
2023-02-06T19:36:21.022Z,23.35
2023-02-06T19:38:49.213Z,23.32
2023-02-06T19:41:20.928Z,23.29
2023-02-06T19:43:48.326Z,23.29
2023-02-06T19:46:17.640Z,23.32
2023-02-06T19:48:46.567Z,23.34
2023-02-06T19:51:22.365Z,23.33
2023-02-06T19:53:50.869Z,23.33
2023-02-06T19:56:24.042Z,23.32
2023-02-06T19:58:59.739Z,23.31
2023-02-06T20:01:29.559Z,23.31
2023-02-06T20:03:57.393Z,23.31
2023-02-06T20:06:24.156Z,23.31
2023-02-06T20:08:50.756Z,23.33
2023-02-06T20:11:21.210Z,23.33
2023-02-06T20:13:48.387Z,23.33
2023-02-06T20:16:20.332Z,23.32
2023-02-06T20:18:47.613Z,23.32
2023-02-06T20:21:38.994Z,23.29
2023-02-06T20:24:08.742Z,23.29
2023-02-06T20:26:37.592Z,23.31
2023-02-06T20:29:05.433Z,23.32
2023-02-06T20:31:34.184Z,23.32
2023-02-06T20:34:01.244Z,23.32
2023-02-06T20:36:28.871Z,23.31
2023-02-06T20:38:59.873Z,23.30
2023-02-06T20:41:29.678Z,23.29
2023-02-06T20:43:58.182Z,23.29
2023-02-06T20:46:26.360Z,23.27
2023-02-06T20:48:59.227Z,23.26
2023-02-06T20:51:26.589Z,23.24
2023-02-06T20:53:53.657Z,23.23
2023-02-06T20:56:21.199Z,23.23
2023-02-06T20:58:50.336Z,23.22
2023-02-06T21:01:25.770Z,23.18
2023-02-06T21:03:56.167Z,23.16
2023-02-06T21:06:23.055Z,23.16
2023-02-06T21:08:50.335Z,23.15
2023-02-06T21:11:17.572Z,23.13
2023-02-06T21:13:44.146Z,23.12
2023-02-06T21:16:13.468Z,23.11
2023-02-06T21:18:42.566Z,23.11
2023-02-06T21:21:12.477Z,23.10
2023-02-06T21:23:40.637Z,23.09
2023-02-06T21:26:08.109Z,23.06
2023-02-06T21:28:35.788Z,23.05
2023-02-06T21:31:05.271Z,23.04
2023-02-06T21:33:32.735Z,23.03
2023-02-06T21:36:01.428Z,23.02
2023-02-06T21:38:27.961Z,23.00
2023-02-06T21:40:54.800Z,22.99
2023-02-06T21:43:21.295Z,22.98
2023-02-06T21:45:48.418Z,22.97
2023-02-06T21:48:15.340Z,22.96
2023-02-06T21:50:41.929Z,22.94
2023-02-06T21:53:09.516Z,22.93
2023-02-06T21:55:41.945Z,22.92
2023-02-06T21:58:08.733Z,22.91
2023-02-06T22:00:35.246Z,22.90
2023-02-06T22:03:02.041Z,22.90
2023-02-06T22:05:29.244Z,22.88
2023-02-06T22:07:56.813Z,22.87
2023-02-06T22:10:23.332Z,22.85
2023-02-06T22:12:50.182Z,22.85
2023-02-06T22:15:16.956Z,22.83
2023-02-06T22:17:43.471Z,22.81
2023-02-06T22:20:10.178Z,22.81
2023-02-06T22:22:38.675Z,22.79
2023-02-06T22:25:05.817Z,22.78
2023-02-06T22:27:33.667Z,22.75
2023-02-06T22:30:00.204Z,22.75
2023-02-06T22:32:26.842Z,22.73
2023-02-06T22:34:54.032Z,22.72
2023-02-06T22:37:20.816Z,22.73
2023-02-06T22:39:47.330Z,22.70
2023-02-06T22:42:14.003Z,22.68
2023-02-06T22:44:40.564Z,22.67
2023-02-06T22:47:07.122Z,22.66
2023-02-06T22:49:33.710Z,22.65
2023-02-06T22:52:00.529Z,22.64
2023-02-06T22:54:27.173Z,22.62
2023-02-06T22:56:53.671Z,22.62
2023-02-06T22:59:23.314Z,22.60
2023-02-06T23:01:55.851Z,22.59
2023-02-06T23:04:25.011Z,22.58
2023-02-06T23:06:52.151Z,22.57
2023-02-06T23:09:23.744Z,22.55
2023-02-06T23:11:51.718Z,22.53
2023-02-06T23:14:19.120Z,22.51
2023-02-06T23:16:46.225Z,22.51
2023-02-06T23:19:14.389Z,22.49
2023-02-06T23:21:42.393Z,22.48
2023-02-06T23:24:10.727Z,22.48
2023-02-06T23:26:38.193Z,22.46
2023-02-06T23:29:06.728Z,22.44
2023-02-06T23:31:33.762Z,22.43
2023-02-06T23:34:00.780Z,22.43
2023-02-06T23:36:28.713Z,22.42
2023-02-06T23:38:56.100Z,22.40
2023-02-06T23:41:25.811Z,22.38
2023-02-06T23:43:55.596Z,22.38
2023-02-06T23:46:22.923Z,22.35
2023-02-06T23:48:49.940Z,22.34
2023-02-06T23:51:17.775Z,22.34
2023-02-06T23:53:44.619Z,22.33
2023-02-06T23:56:17.356Z,22.32
2023-02-06T23:58:44.190Z,22.30
